createdAt,value
2022-12-24T00:01:07.428Z,9.60
2022-12-24T00:03:36.674Z,9.60
2022-12-24T00:06:16.991Z,9.50
2022-12-24T00:08:43.988Z,9.80
2022-12-24T00:11:11.123Z,9.80
2022-12-24T00:13:38.654Z,9.80
2022-12-24T00:16:05.863Z,9.80
2022-12-24T00:18:33.178Z,9.70
2022-12-24T00:21:01.907Z,9.60
2022-12-24T00:23:28.695Z,9.60
2022-12-24T00:25:56.194Z,9.60
2022-12-24T00:28:23.132Z,9.70
2022-12-24T00:30:50.124Z,9.60
2022-12-24T00:33:22.400Z,9.70
2022-12-24T00:35:52.952Z,9.80
2022-12-24T00:38:19.785Z,9.70
2022-12-24T00:40:46.599Z,9.70
2022-12-24T00:43:13.411Z,9.70
2022-12-24T00:45:40.360Z,9.70
2022-12-24T00:48:07.218Z,9.70
2022-12-24T00:50:34.052Z,9.70
2022-12-24T00:53:00.924Z,9.70
2022-12-24T00:55:27.828Z,9.80
2022-12-24T00:57:54.642Z,9.90
2022-12-24T01:00:21.592Z,10.00
2022-12-24T01:02:48.514Z,9.90
2022-12-24T01:05:15.527Z,9.90
2022-12-24T01:07:44.509Z,9.90
2022-12-24T01:10:13.593Z,9.90
2022-12-24T01:12:40.778Z,10.00
2022-12-24T01:15:08.384Z,10.00
2022-12-24T01:17:35.793Z,10.00
2022-12-24T01:20:04.782Z,10.00
2022-12-24T01:22:31.664Z,9.90
2022-12-24T01:24:58.828Z,9.90
2022-12-24T01:27:25.808Z,9.90
2022-12-24T01:29:52.614Z,9.90
2022-12-24T01:32:19.458Z,9.80
2022-12-24T01:34:46.352Z,9.90
2022-12-24T01:37:13.533Z,9.80
2022-12-24T01:39:40.338Z,10.00
2022-12-24T01:42:41.153Z,10.00
2022-12-24T01:45:35.660Z,9.80
2022-12-24T01:48:03.026Z,9.90
2022-12-24T01:50:30.017Z,10.00
2022-12-24T01:52:57.901Z,10.00
2022-12-24T01:55:26.396Z,10.00
2022-12-24T01:57:59.609Z,9.90
2022-12-24T02:00:26.715Z,9.80
2022-12-24T02:02:54.596Z,9.70
2022-12-24T02:05:51.335Z,9.60
2022-12-24T02:08:19.064Z,9.60
2022-12-24T02:10:47.358Z,9.70
2022-12-24T02:13:19.134Z,9.60
2022-12-24T02:15:59.212Z,9.70
2022-12-24T02:19:10.510Z,9.70
2022-12-24T02:21:49.723Z,9.80
2022-12-24T02:24:32.448Z,9.80
2022-12-24T02:27:34.935Z,9.70
2022-12-24T02:30:26.251Z,9.70
2022-12-24T02:33:26.017Z,9.70
2022-12-24T02:35:59.482Z,9.70
2022-12-24T02:39:08.270Z,9.60
2022-12-24T02:41:58.209Z,9.60
2022-12-24T02:44:28.745Z,9.50
2022-12-24T02:46:57.189Z,9.40
2022-12-24T02:49:24.059Z,9.50
2022-12-24T02:51:51.591Z,9.50
2022-12-24T02:54:18.715Z,9.50
2022-12-24T02:57:17.915Z,9.40
2022-12-24T03:00:13.939Z,9.50
2022-12-24T03:03:16.781Z,9.60
2022-12-24T03:05:52.067Z,9.60
2022-12-24T03:08:44.106Z,9.60
2022-12-24T03:11:13.916Z,9.60
2022-12-24T03:13:42.551Z,9.60
2022-12-24T03:16:13.914Z,9.60
2022-12-24T03:18:44.291Z,9.60
2022-12-24T03:21:20.301Z,9.70
2022-12-24T03:23:47.863Z,9.70
2022-12-24T03:26:19.300Z,9.70
2022-12-24T03:28:47.070Z,9.70
2022-12-24T03:31:15.189Z,9.80
2022-12-24T03:33:42.318Z,9.80
2022-12-24T03:36:10.028Z,9.80
2022-12-24T03:38:37.114Z,9.70
2022-12-24T03:41:04.448Z,9.70
2022-12-24T03:43:31.299Z,9.60
2022-12-24T03:45:58.269Z,9.50
2022-12-24T03:48:32.380Z,9.50
2022-12-24T03:50:59.570Z,9.50
2022-12-24T03:53:26.841Z,9.50
2022-12-24T03:55:54.098Z,9.50
2022-12-24T03:58:20.907Z,9.70
2022-12-24T04:00:48.272Z,9.70
2022-12-24T04:03:15.267Z,9.80
2022-12-24T04:05:42.202Z,9.80
2022-12-24T04:08:09.407Z,9.80
2022-12-24T04:10:36.217Z,9.80
2022-12-24T04:13:03.028Z,9.70
2022-12-24T04:15:29.904Z,9.80
2022-12-24T04:17:56.740Z,9.70
2022-12-24T04:20:23.617Z,9.70
2022-12-24T04:22:50.494Z,9.60
2022-12-24T04:25:17.322Z,9.70
2022-12-24T04:27:44.164Z,9.70
2022-12-24T04:30:11.284Z,9.70
2022-12-24T04:32:38.547Z,9.80
2022-12-24T04:35:05.716Z,9.80
2022-12-24T04:37:34.260Z,9.70
2022-12-24T04:40:01.042Z,9.70
2022-12-24T04:42:27.832Z,9.70
2022-12-24T04:44:54.580Z,9.70
2022-12-24T04:47:25.130Z,9.70
2022-12-24T04:49:52.435Z,9.70
2022-12-24T04:52:19.600Z,9.70
2022-12-24T04:54:46.415Z,9.60
2022-12-24T04:57:13.591Z,9.70
2022-12-24T04:59:40.367Z,9.70
2022-12-24T05:02:07.273Z,9.50
2022-12-24T05:04:34.598Z,9.60
2022-12-24T05:07:01.374Z,9.60
2022-12-24T05:09:28.296Z,9.60
2022-12-24T05:11:55.090Z,9.60
2022-12-24T05:14:21.995Z,9.40
2022-12-24T05:16:48.947Z,9.40
2022-12-24T05:19:15.723Z,9.30
2022-12-24T05:21:42.710Z,9.40
2022-12-24T05:24:29.984Z,9.40
2022-12-24T05:26:58.655Z,9.40
2022-12-24T05:29:25.419Z,9.40
2022-12-24T05:31:52.199Z,9.50
2022-12-24T05:34:19.427Z,9.60
2022-12-24T05:36:46.333Z,9.60
2022-12-24T05:39:16.437Z,9.70
2022-12-24T05:41:44.534Z,9.70
2022-12-24T05:44:11.385Z,9.70
2022-12-24T05:46:38.363Z,9.70
2022-12-24T05:49:05.217Z,9.70
2022-12-24T05:51:32.463Z,9.60
2022-12-24T05:53:59.819Z,9.70
2022-12-24T05:56:27.005Z,9.70
2022-12-24T05:58:54.852Z,9.70
2022-12-24T06:01:22.903Z,9.70
2022-12-24T06:03:50.731Z,9.70
2022-12-24T06:06:21.541Z,9.70
2022-12-24T06:08:49.856Z,9.70
2022-12-24T06:11:19.165Z,9.80
2022-12-24T06:13:46.069Z,9.90
2022-12-24T06:16:15.282Z,9.90
2022-12-24T06:18:42.892Z,10.00
2022-12-24T06:21:10.690Z,9.90
2022-12-24T06:23:39.546Z,10.00
2022-12-24T06:26:08.230Z,10.00
2022-12-24T06:28:37.249Z,9.90
2022-12-24T06:31:05.864Z,10.00
2022-12-24T06:33:33.627Z,10.00
2022-12-24T06:36:00.945Z,10.00
2022-12-24T06:38:30.348Z,9.90
2022-12-24T06:40:57.591Z,9.80
2022-12-24T06:43:24.500Z,9.60
2022-12-24T06:45:52.833Z,9.50
2022-12-24T06:48:20.103Z,9.50
2022-12-24T06:50:47.438Z,9.50
2022-12-24T06:53:14.377Z,9.50
2022-12-24T06:55:41.479Z,9.50
2022-12-24T06:58:08.379Z,9.50
2022-12-24T07:00:35.758Z,9.60
2022-12-24T07:03:02.737Z,9.80
2022-12-24T07:05:29.864Z,9.80
2022-12-24T07:07:57.125Z,10.00
2022-12-24T07:10:24.592Z,10.10
2022-12-24T07:12:51.527Z,10.20
2022-12-24T07:15:18.778Z,10.30
2022-12-24T07:17:45.658Z,10.40
2022-12-24T07:20:14.972Z,10.50
2022-12-24T07:22:42.874Z,10.50
2022-12-24T07:25:10.837Z,10.60
2022-12-24T07:27:38.432Z,10.60
2022-12-24T07:30:05.971Z,10.60
2022-12-24T07:32:33.250Z,10.60
2022-12-24T07:35:00.125Z,10.60
2022-12-24T07:37:27.034Z,10.60
2022-12-24T07:39:54.217Z,10.70
2022-12-24T07:42:21.076Z,10.70
2022-12-24T07:44:47.957Z,10.70
2022-12-24T07:47:14.865Z,10.60
2022-12-24T07:49:41.840Z,10.60
2022-12-24T07:52:09.259Z,10.80
2022-12-24T07:54:36.118Z,10.90
2022-12-24T07:57:03.046Z,11.10
2022-12-24T07:59:29.851Z,11.30
2022-12-24T08:01:56.871Z,11.60
2022-12-24T08:04:23.822Z,11.80
2022-12-24T08:06:50.688Z,11.90
2022-12-24T08:09:17.543Z,12.00
2022-12-24T08:11:51.350Z,12.10
2022-12-24T08:14:18.768Z,12.20
2022-12-24T08:16:45.774Z,12.20
2022-12-24T08:19:12.589Z,12.20
2022-12-24T08:21:40.314Z,12.20
2022-12-24T08:24:07.752Z,12.20
2022-12-24T08:26:34.579Z,12.20
2022-12-24T08:29:02.281Z,12.40
2022-12-24T08:31:29.408Z,12.50
2022-12-24T08:33:56.290Z,12.60
2022-12-24T08:36:23.069Z,12.70
2022-12-24T08:38:50.237Z,13.00
2022-12-24T08:41:17.438Z,13.10
2022-12-24T08:43:44.629Z,13.20
2022-12-24T08:46:11.536Z,13.20
2022-12-24T08:48:38.526Z,13.20
2022-12-24T08:51:10.144Z,13.30
2022-12-24T08:53:38.069Z,13.30
2022-12-24T08:56:07.100Z,13.30
2022-12-24T08:58:34.445Z,13.40
2022-12-24T09:01:01.901Z,13.40
2022-12-24T09:03:28.781Z,13.40
2022-12-24T09:05:56.339Z,13.40
2022-12-24T09:08:23.798Z,13.40
2022-12-24T09:10:51.363Z,13.30
2022-12-24T09:13:18.799Z,13.30
2022-12-24T09:15:54.324Z,13.30
2022-12-24T09:18:21.192Z,13.30
2022-12-24T09:20:53.939Z,13.40
2022-12-24T09:23:25.728Z,13.40
2022-12-24T09:25:52.936Z,13.30
2022-12-24T09:28:20.552Z,13.30
2022-12-24T09:31:02.721Z,13.20
2022-12-24T09:33:32.344Z,13.10
2022-12-24T09:35:59.588Z,13.10
2022-12-24T09:38:26.508Z,13.00
2022-12-24T09:40:55.509Z,12.90
2022-12-24T09:43:25.471Z,12.80
2022-12-24T09:46:14.117Z,12.70
2022-12-24T09:48:45.702Z,12.70
2022-12-24T09:51:21.318Z,12.80
2022-12-24T09:53:55.446Z,12.90
2022-12-24T09:56:33.506Z,13.00
2022-12-24T09:59:02.942Z,13.10
2022-12-24T10:01:31.897Z,13.10
2022-12-24T10:04:03.614Z,13.00
2022-12-24T10:06:55.629Z,13.10
2022-12-24T10:09:46.367Z,13.20
2022-12-24T10:12:34.339Z,13.20
2022-12-24T10:15:27.933Z,13.20
2022-12-24T10:17:57.737Z,13.20
2022-12-24T10:20:27.611Z,13.10
2022-12-24T10:22:57.816Z,13.10
2022-12-24T10:25:34.558Z,13.30
2022-12-24T10:28:06.189Z,13.40
2022-12-24T10:30:34.687Z,13.60
2022-12-24T10:33:01.774Z,13.70
2022-12-24T10:35:36.489Z,13.80
2022-12-24T10:38:04.446Z,14.00
2022-12-24T10:40:40.972Z,14.10
2022-12-24T10:43:20.296Z,14.10
2022-12-24T10:45:55.586Z,14.10
2022-12-24T10:48:36.165Z,14.10
2022-12-24T10:51:05.992Z,14.10
2022-12-24T10:53:44.533Z,14.10
2022-12-24T10:56:15.678Z,14.10
2022-12-24T10:58:50.879Z,14.10
2022-12-24T11:01:18.408Z,14.10
2022-12-24T11:03:45.481Z,14.00
2022-12-24T11:06:15.308Z,14.00
2022-12-24T11:08:44.284Z,14.00
2022-12-24T11:11:20.654Z,14.00
2022-12-24T11:13:50.951Z,14.10
2022-12-24T11:16:22.192Z,14.10
2022-12-24T11:18:52.678Z,14.10
2022-12-24T11:21:40.195Z,14.10
2022-12-24T11:24:13.195Z,14.00
2022-12-24T11:26:44.605Z,14.00
2022-12-24T11:29:21.887Z,14.10
2022-12-24T11:31:49.903Z,14.00
2022-12-24T11:34:29.464Z,14.00
2022-12-24T11:37:15.329Z,14.00
2022-12-24T11:39:46.864Z,14.10
2022-12-24T11:42:36.816Z,14.00
2022-12-24T11:45:25.926Z,13.90
2022-12-24T11:47:54.311Z,13.90
2022-12-24T11:50:35.645Z,13.90
2022-12-24T11:53:19.187Z,13.90
2022-12-24T11:55:52.001Z,13.80
2022-12-24T11:58:46.077Z,13.80
2022-12-24T12:01:30.592Z,13.80
2022-12-24T12:04:07.154Z,13.90
2022-12-24T12:06:43.076Z,13.90
2022-12-24T12:09:19.105Z,13.90
2022-12-24T12:11:52.303Z,13.90
2022-12-24T12:14:30.276Z,13.90
2022-12-24T12:17:06.785Z,14.00
2022-12-24T12:19:43.681Z,13.90
2022-12-24T12:22:35.597Z,13.90
2022-12-24T12:25:04.588Z,13.90
2022-12-24T12:27:33.541Z,13.90
2022-12-24T12:30:04.872Z,13.90
2022-12-24T12:32:59.513Z,13.80
2022-12-24T12:35:35.387Z,13.80
2022-12-24T12:38:23.139Z,13.70
2022-12-24T12:41:02.196Z,13.70
2022-12-24T12:43:53.183Z,13.80
2022-12-24T12:46:22.791Z,13.80
2022-12-24T12:49:14.005Z,13.80
2022-12-24T12:51:46.036Z,13.70
2022-12-24T12:54:28.366Z,13.60
2022-12-24T12:57:02.717Z,13.60
2022-12-24T12:59:47.734Z,13.60
2022-12-24T13:02:51.570Z,13.60
2022-12-24T13:05:43.046Z,13.60
2022-12-24T13:08:37.219Z,13.70
2022-12-24T13:11:22.494Z,13.80
2022-12-24T13:14:01.163Z,13.90
2022-12-24T13:16:44.668Z,13.80
2022-12-24T13:19:48.988Z,13.80
2022-12-24T13:22:18.551Z,13.90
2022-12-24T13:24:52.648Z,13.70
2022-12-24T13:27:34.009Z,13.80
2022-12-24T13:30:12.875Z,13.80
2022-12-24T13:32:51.178Z,13.80
2022-12-24T13:35:21.290Z,13.70
2022-12-24T13:37:49.902Z,13.60
2022-12-24T13:40:28.112Z,13.40
2022-12-24T13:43:01.364Z,13.40
2022-12-24T13:45:31.717Z,13.40
2022-12-24T13:48:07.834Z,13.50
2022-12-24T13:50:37.956Z,13.40
2022-12-24T13:53:06.970Z,13.30
2022-12-24T13:55:34.778Z,13.30
2022-12-24T13:58:03.963Z,13.30
2022-12-24T14:00:42.077Z,13.30
2022-12-24T14:03:15.374Z,13.40
2022-12-24T14:05:46.562Z,13.40
2022-12-24T14:08:28.511Z,13.30
2022-12-24T14:11:04.999Z,13.30
2022-12-24T14:13:41.119Z,13.40
2022-12-24T14:16:23.209Z,12.10
2022-12-24T14:19:11.648Z,13.40
2022-12-24T14:21:55.536Z,13.30
2022-12-24T14:24:38.398Z,13.30
2022-12-24T14:27:24.898Z,13.20
2022-12-24T14:30:25.732Z,13.30
2022-12-24T14:32:54.184Z,13.20
2022-12-24T14:35:25.474Z,13.30
2022-12-24T14:38:01.962Z,13.30
2022-12-24T14:40:38.768Z,13.30
2022-12-24T14:43:25.227Z,13.30
2022-12-24T14:46:09.588Z,13.40
2022-12-24T14:48:57.697Z,13.40
2022-12-24T14:51:51.835Z,13.40
2022-12-24T14:54:39.268Z,13.30
2022-12-24T14:57:14.346Z,13.30
2022-12-24T14:59:49.134Z,13.30
2022-12-24T15:02:40.943Z,13.20
2022-12-24T15:05:29.652Z,13.20
2022-12-24T15:08:02.551Z,13.10
2022-12-24T15:10:37.115Z,13.10
2022-12-24T15:13:22.266Z,13.10
2022-12-24T15:15:52.759Z,13.20
2022-12-24T15:18:25.318Z,13.20
2022-12-24T15:21:01.768Z,13.20
2022-12-24T15:23:35.096Z,13.10
2022-12-24T15:26:26.225Z,13.10
2022-12-24T15:29:02.167Z,13.00
2022-12-24T15:31:30.493Z,13.00
2022-12-24T15:34:01.635Z,13.00
2022-12-24T15:36:35.617Z,13.00
2022-12-24T15:39:06.218Z,12.90
2022-12-24T15:42:03.063Z,12.80
2022-12-24T15:44:36.980Z,12.80
2022-12-24T15:47:07.113Z,12.80
2022-12-24T15:49:35.097Z,12.70
2022-12-24T15:52:08.286Z,12.70
2022-12-24T15:54:35.399Z,12.70
2022-12-24T15:57:33.359Z,12.80
2022-12-24T16:00:02.906Z,12.70
2022-12-24T16:02:45.329Z,12.70
2022-12-24T16:05:33.312Z,12.70
2022-12-24T16:08:07.660Z,12.80
2022-12-24T16:10:47.589Z,12.80
2022-12-24T16:13:21.426Z,12.80
2022-12-24T16:16:01.970Z,12.90
2022-12-24T16:18:42.377Z,12.90
2022-12-24T16:21:09.927Z,12.90
2022-12-24T16:23:47.294Z,12.90
2022-12-24T16:26:15.003Z,12.90
2022-12-24T16:28:41.892Z,12.90
2022-12-24T16:31:28.544Z,12.90
2022-12-24T16:33:59.047Z,12.80
2022-12-24T16:36:26.356Z,12.70
2022-12-24T16:39:12.056Z,12.60
2022-12-24T16:41:57.389Z,12.60
2022-12-24T16:44:24.673Z,12.60
2022-12-24T16:46:53.584Z,12.60
2022-12-24T16:49:22.654Z,12.60
2022-12-24T16:51:49.956Z,12.60
2022-12-24T16:54:16.776Z,12.70
2022-12-24T16:56:46.167Z,12.70
2022-12-24T16:59:22.068Z,12.70
2022-12-24T17:01:50.487Z,12.70
2022-12-24T17:04:19.366Z,12.70
2022-12-24T17:06:48.635Z,12.60
2022-12-24T17:09:15.439Z,12.50
2022-12-24T17:11:42.342Z,12.50
2022-12-24T17:14:19.833Z,12.50
2022-12-24T17:16:50.560Z,12.60
2022-12-24T17:19:18.132Z,12.60
2022-12-24T17:21:45.980Z,12.70
2022-12-24T17:24:13.192Z,12.70
2022-12-24T17:26:41.621Z,12.80
2022-12-24T17:29:09.233Z,11.30
2022-12-24T17:31:39.569Z,12.90
2022-12-24T17:34:06.950Z,13.00
2022-12-24T17:36:33.990Z,13.00
2022-12-24T17:39:00.857Z,13.10
2022-12-24T17:41:27.901Z,13.10
2022-12-24T17:43:54.757Z,13.10
2022-12-24T17:46:23.813Z,13.10
2022-12-24T17:48:51.858Z,13.10
2022-12-24T17:51:21.082Z,13.20
2022-12-24T17:53:48.934Z,13.20
2022-12-24T17:56:16.576Z,11.60
2022-12-24T17:58:45.850Z,13.20
2022-12-24T18:01:21.901Z,13.10
2022-12-24T18:03:51.433Z,13.00
2022-12-24T18:06:19.776Z,12.80
2022-12-24T18:08:48.057Z,12.70
2022-12-24T18:11:18.148Z,12.70
2022-12-24T18:13:46.335Z,12.70
2022-12-24T18:16:23.010Z,12.60
2022-12-24T18:18:51.401Z,12.60
2022-12-24T18:21:20.578Z,12.40
2022-12-24T18:23:49.664Z,12.40
2022-12-24T18:26:18.303Z,12.40
2022-12-24T18:28:46.143Z,12.40
2022-12-24T18:31:16.722Z,12.30
2022-12-24T18:33:45.508Z,12.40
2022-12-24T18:36:13.094Z,12.40
2022-12-24T18:38:40.428Z,12.40
2022-12-24T18:41:10.456Z,12.40
2022-12-24T18:43:37.320Z,12.40
2022-12-24T18:46:09.248Z,12.40
2022-12-24T18:48:36.426Z,12.50
2022-12-24T18:51:05.144Z,12.50
2022-12-24T18:53:32.307Z,12.50
2022-12-24T18:56:13.881Z,12.50
2022-12-24T18:58:42.310Z,12.50
2022-12-24T21:08:40.946Z,10.90
2022-12-24T21:16:35.893Z,11.00
2022-12-24T21:19:03.354Z,11.10
2022-12-24T21:21:30.339Z,11.20
2022-12-24T21:23:57.470Z,11.20
2022-12-24T21:26:24.411Z,11.30
2022-12-24T21:28:51.282Z,11.30
2022-12-24T21:31:18.317Z,11.40
2022-12-24T21:33:46.044Z,11.30
2022-12-24T21:36:14.384Z,11.30
2022-12-24T21:38:41.225Z,11.30
2022-12-24T21:41:12.194Z,11.30
2022-12-24T21:43:39.749Z,11.30
2022-12-24T21:46:19.426Z,11.30
2022-12-24T21:49:05.024Z,11.30
2022-12-24T21:51:32.672Z,11.20
2022-12-24T21:54:18.382Z,11.10
2022-12-24T21:57:03.812Z,11.00
2022-12-24T21:59:30.749Z,10.90
2022-12-24T22:01:58.188Z,10.90
2022-12-24T22:04:25.940Z,10.80
2022-12-24T22:07:11.422Z,10.80
2022-12-24T22:09:58.142Z,10.90
2022-12-24T22:12:26.121Z,10.90
2022-12-24T22:14:53.050Z,10.90
2022-12-24T22:17:25.045Z,10.90
2022-12-24T22:19:52.469Z,10.80
2022-12-24T22:22:19.251Z,10.90
2022-12-24T22:24:46.557Z,10.90
2022-12-24T22:27:13.311Z,10.90
2022-12-24T22:29:40.227Z,10.90
2022-12-24T22:32:07.225Z,10.90
2022-12-24T22:34:36.037Z,10.90
2022-12-24T22:37:03.002Z,10.90
2022-12-24T22:39:29.802Z,10.90
2022-12-24T22:41:57.976Z,10.90
2022-12-24T22:44:25.549Z,10.90
2022-12-24T22:46:52.470Z,10.90
2022-12-24T22:49:19.669Z,10.90
2022-12-24T22:51:46.918Z,10.90
2022-12-24T22:54:13.726Z,10.80
2022-12-24T22:56:41.562Z,10.80
2022-12-24T22:59:12.321Z,10.80
2022-12-24T23:01:41.258Z,10.80
2022-12-24T23:04:08.193Z,10.90
2022-12-24T23:06:35.777Z,10.90
2022-12-24T23:09:04.991Z,10.80
2022-12-24T23:11:31.781Z,10.90
2022-12-24T23:14:17.509Z,10.90
2022-12-24T23:16:44.779Z,10.90
2022-12-24T23:19:11.766Z,10.70
2022-12-24T23:21:38.596Z,10.60
2022-12-24T23:24:06.128Z,10.60
2022-12-24T23:26:32.942Z,10.50
2022-12-24T23:29:00.281Z,10.20
2022-12-24T23:31:27.513Z,10.40
2022-12-24T23:33:54.398Z,10.30
2022-12-24T23:36:21.640Z,10.40
2022-12-24T23:38:48.867Z,10.50
2022-12-24T23:41:18.795Z,10.60
2022-12-24T23:43:46.043Z,10.60
2022-12-24T23:46:18.315Z,10.40
2022-12-24T23:48:47.916Z,10.40
2022-12-24T23:51:17.502Z,10.50
2022-12-24T23:53:44.379Z,10.40
2022-12-24T23:56:12.674Z,10.40
2022-12-24T23:58:41.160Z,10.40
